Time;durP1;ratioP1;P1;durP2;ratioP2;P2;SDS_P1;SDS_P2;PMS_P1;PMS_P2;Temp;Humidity;BMP_temperature;BMP_pressure;BME280_temperature;BME280_humidity;BME280_pressure;Samples;Min_cycle;Max_cycle;Signal;HPM_P1;HPM_P2
2023/06/05 00:01:27;;;;;;;3.92;2.00;;;;;;;;;;5069365;28;20111;-74
2023/06/05 00:03:53;;;;;;;3.53;1.90;;;;;;;;;;5065716;28;20024;-74
2023/06/05 00:06:18;;;;;;;3.13;1.73;;;;;;;;;;5066146;28;20036;-75
2023/06/05 00:08:44;;;;;;;5.10;2.08;;;;;;;;;;5077761;28;20043;-75
2023/06/05 00:11:09;;;;;;;3.63;1.60;;;;;;;;;;5079922;28;20059;-74
2023/06/05 00:13:35;;;;;;;3.22;1.90;;;;;;;;;;5058772;28;20032;-74
2023/06/05 00:16:02;;;;;;;3.30;1.70;;;;;;;;;;5062094;28;20647;-75
2023/06/05 00:18:28;;;;;;;6.80;2.08;;;;;;;;;;5078029;28;20013;-75
2023/06/05 00:20:54;;;;;;;3.83;1.90;;;;;;;;;;5060014;28;20503;-75
2023/06/05 00:23:19;;;;;;;3.50;1.80;;;;;;;;;;5082107;28;20035;-75
2023/06/05 00:25:45;;;;;;;3.60;1.90;;;;;;;;;;5077654;28;20023;-75
2023/06/05 00:28:10;;;;;;;4.00;1.83;;;;;;;;;;5075463;28;20059;-75
2023/06/05 00:30:36;;;;;;;4.38;2.00;;;;;;;;;;5078412;28;20033;-75
2023/06/05 00:33:02;;;;;;;3.05;2.03;;;;;;;;;;5074761;28;20033;-75
2023/06/05 00:35:27;;;;;;;4.43;2.25;;;;;;;;;;5082238;28;20392;-75
2023/06/05 00:37:53;;;;;;;3.60;2.20;;;;;;;;;;5077543;28;20464;-75
2023/06/05 00:40:18;;;;;;;4.57;2.10;;;;;;;;;;5076480;28;20464;-75
2023/06/05 00:42:44;;;;;;;3.88;1.80;;;;;;;;;;5075974;28;20476;-78
2023/06/05 00:45:09;;;;;;;5.07;2.13;;;;;;;;;;5057537;28;20028;-79
2023/06/05 00:47:35;;;;;;;5.00;2.20;;;;;;;;;;5059893;28;20468;-79
2023/06/05 00:50:01;;;;;;;4.07;2.13;;;;;;;;;;5083093;28;20047;-78
2023/06/05 00:52:27;;;;;;;3.50;1.95;;;;;;;;;;5081434;28;20032;-78
2023/06/05 00:54:53;;;;;;;4.15;2.28;;;;;;;;;;5077210;28;20016;-79
2023/06/05 00:57:19;;;;;;;3.30;2.00;;;;;;;;;;5085067;28;20031;-79
2023/06/05 00:59:45;;;;;;;3.55;2.00;;;;;;;;;;5079282;28;20016;-79
2023/06/05 01:02:14;;;;;;;5.70;2.00;;;;;;;;;;5069239;28;20032;-78
2023/06/05 01:04:43;;;;;;;2.78;1.92;;;;;;;;;;5077551;28;20027;-79
2023/06/05 01:07:10;;;;;;;5.50;2.17;;;;;;;;;;5057129;28;20028;-78
2023/06/05 01:09:37;;;;;;;4.30;2.05;;;;;;;;;;5056678;28;20473;-79
2023/06/05 01:12:15;;;;;;;3.92;2.20;;;;;;;;;;5073606;28;20043;-78
2023/06/05 01:14:45;;;;;;;4.15;2.00;;;;;;;;;;5077827;28;20499;-77
2023/06/05 01:17:12;;;;;;;5.35;2.25;;;;;;;;;;5060574;28;20027;-77
2023/06/05 01:19:39;;;;;;;3.83;2.10;;;;;;;;;;5075881;28;20491;-79
2023/06/05 01:22:05;;;;;;;3.95;2.05;;;;;;;;;;5080557;28;20393;-78
2023/06/05 01:24:32;;;;;;;3.10;2.05;;;;;;;;;;5063936;28;20073;-79
2023/06/05 01:27:33;;;;;;;6.20;2.40;;;;;;;;;;5056480;28;20028;-79
2023/06/05 01:30:14;;;;;;;5.15;2.45;;;;;;;;;;5075309;28;20564;-78
2023/06/05 01:33:02;;;;;;;5.00;2.05;;;;;;;;;;5069495;28;20028;-78
2023/06/05 01:35:32;;;;;;;4.47;2.25;;;;;;;;;;5075645;28;20290;-78
2023/06/05 01:38:01;;;;;;;4.20;2.15;;;;;;;;;;5078326;28;20069;-77
2023/06/05 01:40:28;;;;;;;6.28;2.35;;;;;;;;;;5058528;28;20020;-79
2023/06/05 01:42:55;;;;;;;3.97;2.40;;;;;;;;;;5076284;28;20111;-78
2023/06/05 01:45:20;;;;;;;4.35;2.80;;;;;;;;;;5068139;28;20054;-78
2023/06/05 01:47:49;;;;;;;6.15;2.80;;;;;;;;;;5062541;28;20028;-78
2023/06/05 01:50:15;;;;;;;5.63;2.60;;;;;;;;;;5082011;28;20020;-78
2023/06/05 01:52:41;;;;;;;4.50;2.47;;;;;;;;;;5082195;28;20109;-79
2023/06/05 01:55:14;;;;;;;4.70;2.30;;;;;;;;;;5060044;28;20104;-78
2023/06/05 01:57:40;;;;;;;5.53;2.80;;;;;;;;;;5078272;28;20496;-79
2023/06/05 02:00:10;;;;;;;4.47;2.35;;;;;;;;;;5056987;28;20020;-79
2023/06/05 02:02:35;;;;;;;5.38;2.53;;;;;;;;;;5058362;28;20034;-79
2023/06/05 02:05:01;;;;;;;3.92;2.50;;;;;;;;;;5059071;28;20536;-79
2023/06/05 02:07:28;;;;;;;5.00;2.80;;;;;;;;;;5074944;28;20100;-79
2023/06/05 02:09:53;;;;;;;3.78;2.53;;;;;;;;;;5082862;28;20016;-79
2023/06/05 02:12:19;;;;;;;6.93;2.92;;;;;;;;;;5076369;28;20452;-79
2023/06/05 02:14:44;;;;;;;5.30;2.75;;;;;;;;;;5078555;28;20447;-79
2023/06/05 02:17:13;;;;;;;4.78;2.78;;;;;;;;;;5080727;28;20032;-79
2023/06/05 02:19:41;;;;;;;5.20;2.83;;;;;;;;;;5054298;28;20834;-78
2023/06/05 02:22:07;;;;;;;5.35;2.83;;;;;;;;;;5058410;28;20473;-79
2023/06/05 02:24:34;;;;;;;6.15;2.83;;;;;;;;;;5060627;28;20085;-78
2023/06/05 02:27:00;;;;;;;5.05;2.63;;;;;;;;;;5057717;28;20464;-78
2023/06/05 02:29:25;;;;;;;4.45;2.65;;;;;;;;;;5083051;28;20024;-77
2023/06/05 02:31:50;;;;;;;6.38;3.00;;;;;;;;;;5059765;28;20035;-78
2023/06/05 02:34:19;;;;;;;5.97;2.78;;;;;;;;;;5061024;28;20032;-78
2023/06/05 02:36:45;;;;;;;5.65;2.88;;;;;;;;;;5058300;28;20480;-78
2023/06/05 02:39:11;;;;;;;5.88;2.72;;;;;;;;;;5078383;28;20457;-79
2023/06/05 02:41:37;;;;;;;5.45;3.15;;;;;;;;;;5076727;28;20035;-78
2023/06/05 02:44:03;;;;;;;4.68;3.00;;;;;;;;;;5074903;28;20169;-79
2023/06/05 02:46:28;;;;;;;4.22;2.70;;;;;;;;;;5078467;28;20032;-78
2023/06/05 02:48:54;;;;;;;6.00;2.70;;;;;;;;;;5063543;28;20484;-78
2023/06/05 02:51:19;;;;;;;4.43;3.08;;;;;;;;;;5076012;28;20020;-79
2023/06/05 02:53:45;;;;;;;4.38;3.10;;;;;;;;;;5072695;28;20059;-79
2023/06/05 02:56:12;;;;;;;3.83;2.80;;;;;;;;;;5054469;28;20039;-78
2023/06/05 02:58:39;;;;;;;5.25;3.10;;;;;;;;;;5074951;28;20107;-79
2023/06/05 03:01:08;;;;;;;5.43;3.08;;;;;;;;;;5061346;28;20024;-78
2023/06/05 03:03:33;;;;;;;5.47;2.78;;;;;;;;;;5076848;28;20032;-78
2023/06/05 03:06:06;;;;;;;6.40;3.70;;;;;;;;;;5067847;28;20024;-78
2023/06/05 03:08:36;;;;;;;4.88;2.90;;;;;;;;;;5078442;28;20539;-78
2023/06/05 03:11:03;;;;;;;4.93;3.33;;;;;;;;;;5080803;28;20108;-78
2023/06/05 03:13:28;;;;;;;4.93;3.20;;;;;;;;;;5080187;28;20430;-79
2023/06/05 03:16:00;;;;;;;4.68;2.90;;;;;;;;;;5074726;28;20025;-79
2023/06/05 03:18:30;;;;;;;5.90;2.97;;;;;;;;;;5085147;28;20031;-79
2023/06/05 03:20:56;;;;;;;4.75;2.83;;;;;;;;;;5079730;28;20047;-78
2023/06/05 03:23:27;;;;;;;6.47;3.50;;;;;;;;;;5056422;28;20025;-79
2023/06/05 03:25:53;;;;;;;5.30;3.40;;;;;;;;;;5077858;28;20031;-79
2023/06/05 03:28:20;;;;;;;5.55;3.33;;;;;;;;;;5083368;28;20040;-79
2023/06/05 03:30:46;;;;;;;4.78;3.33;;;;;;;;;;5077335;28;20017;-80
2023/06/05 03:33:11;;;;;;;5.60;3.40;;;;;;;;;;5059538;28;20035;-79
2023/06/05 03:35:36;;;;;;;6.05;3.60;;;;;;;;;;5060342;28;20475;-79
2023/06/05 03:38:02;;;;;;;6.32;3.75;;;;;;;;;;5077628;28;20495;-79
2023/06/05 03:40:28;;;;;;;5.75;3.40;;;;;;;;;;5080064;28;20017;-78
2023/06/05 03:42:53;;;;;;;6.93;3.80;;;;;;;;;;5055608;28;20483;-79
2023/06/05 03:45:19;;;;;;;4.50;3.22;;;;;;;;;;5076952;28;20023;-79
2023/06/05 03:47:48;;;;;;;5.97;3.72;;;;;;;;;;5075124;28;20025;-78
2023/06/05 03:50:17;;;;;;;6.35;3.95;;;;;;;;;;5081077;28;20490;-79
2023/06/05 03:52:42;;;;;;;5.78;3.28;;;;;;;;;;5072714;28;20056;-78
2023/06/05 03:55:09;;;;;;;6.25;3.65;;;;;;;;;;5082402;28;20061;-79
2023/06/05 03:57:34;;;;;;;7.32;3.55;;;;;;;;;;5065473;28;20058;-78
2023/06/05 03:59:59;;;;;;;5.72;3.45;;;;;;;;;;5060850;28;20055;-78
2023/06/05 04:02:25;;;;;;;5.22;3.50;;;;;;;;;;5062487;28;20020;-78
2023/06/05 04:04:50;;;;;;;4.63;3.42;;;;;;;;;;5064871;28;20012;-79
2023/06/05 04:07:16;;;;;;;4.80;3.15;;;;;;;;;;5076537;28;20032;-78
2023/06/05 04:09:42;;;;;;;4.90;3.22;;;;;;;;;;5082395;28;20444;-79
2023/06/05 04:12:10;;;;;;;7.40;4.28;;;;;;;;;;5079563;28;20032;-78
2023/06/05 04:14:36;;;;;;;5.10;3.47;;;;;;;;;;5061458;28;20031;-79
2023/06/05 04:17:02;;;;;;;6.90;3.92;;;;;;;;;;5081350;28;20024;-79
2023/06/05 04:19:28;;;;;;;5.03;3.60;;;;;;;;;;5063433;28;20024;-80
2023/06/05 04:21:54;;;;;;;6.10;3.72;;;;;;;;;;5082112;28;20479;-79
2023/06/05 04:24:19;;;;;;;8.45;4.38;;;;;;;;;;5071437;28;20111;-79
2023/06/05 04:26:45;;;;;;;6.28;4.10;;;;;;;;;;5062920;28;20214;-79
2023/06/05 04:29:15;;;;;;;6.93;3.80;;;;;;;;;;5076128;28;20028;-79
2023/06/05 04:31:45;;;;;;;5.55;4.05;;;;;;;;;;5080256;28;20036;-79
2023/06/05 04:34:10;;;;;;;5.82;3.83;;;;;;;;;;5064470;28;20073;-79
2023/06/05 04:36:36;;;;;;;5.70;3.80;;;;;;;;;;5082602;28;20024;-78
2023/06/05 04:39:03;;;;;;;5.88;3.65;;;;;;;;;;5075243;28;20095;-79
2023/06/05 04:41:32;;;;;;;5.72;3.85;;;;;;;;;;5063919;28;20473;-77
2023/06/05 04:43:59;;;;;;;5.80;3.83;;;;;;;;;;5067244;28;20107;-79
2023/06/05 04:46:25;;;;;;;7.25;3.80;;;;;;;;;;5064871;28;20020;-79
2023/06/05 04:48:54;;;;;;;6.10;3.58;;;;;;;;;;5083198;28;20026;-78
2023/06/05 04:51:20;;;;;;;6.72;4.18;;;;;;;;;;5082403;28;20027;-78
2023/06/05 04:53:46;;;;;;;5.57;3.92;;;;;;;;;;5082330;28;20020;-79
2023/06/05 04:56:11;;;;;;;6.10;4.13;;;;;;;;;;5062762;28;20067;-79
2023/06/05 04:58:37;;;;;;;7.55;3.92;;;;;;;;;;5060027;28;20171;-79
2023/06/05 05:01:05;;;;;;;6.50;4.35;;;;;;;;;;5059810;28;20029;-79
2023/06/05 05:03:31;;;;;;;6.30;3.85;;;;;;;;;;5063101;28;20020;-79
2023/06/05 05:05:56;;;;;;;6.05;4.05;;;;;;;;;;5056700;28;20561;-78
2023/06/05 05:08:22;;;;;;;6.65;4.30;;;;;;;;;;5065408;28;20127;-79
2023/06/05 05:10:47;;;;;;;6.45;4.13;;;;;;;;;;5059777;28;20032;-77
2023/06/05 05:13:13;;;;;;;5.82;3.70;;;;;;;;;;5083980;28;20043;-78
2023/06/05 05:15:38;;;;;;;6.60;4.00;;;;;;;;;;5073307;28;20017;-79
2023/06/05 05:18:03;;;;;;;6.88;3.85;;;;;;;;;;5076796;28;20036;-78
2023/06/05 05:20:29;;;;;;;6.03;4.03;;;;;;;;;;5077271;28;20028;-78
2023/06/05 05:22:55;;;;;;;7.18;4.05;;;;;;;;;;5084544;28;20031;-78
2023/06/05 05:25:21;;;;;;;9.75;5.25;;;;;;;;;;5073972;28;20032;-79
2023/06/05 05:27:47;;;;;;;7.95;4.50;;;;;;;;;;5080930;28;20020;-78
2023/06/05 05:30:13;;;;;;;6.38;4.53;;;;;;;;;;5065068;28;20369;-79
2023/06/05 05:32:38;;;;;;;5.55;3.70;;;;;;;;;;5062263;28;20052;-79
2023/06/05 05:35:04;;;;;;;8.05;4.50;;;;;;;;;;5081072;28;20101;-78
2023/06/05 05:37:30;;;;;;;6.45;4.07;;;;;;;;;;5074610;28;20016;-78
2023/06/05 05:39:55;;;;;;;7.10;3.85;;;;;;;;;;5059592;28;20110;-78
2023/06/05 05:42:20;;;;;;;8.25;4.18;;;;;;;;;;5060767;28;20115;-79
2023/06/05 05:44:46;;;;;;;6.88;4.30;;;;;;;;;;5057214;28;20020;-79
2023/06/05 05:47:12;;;;;;;6.97;3.88;;;;;;;;;;5077051;28;20037;-79
2023/06/05 05:49:37;;;;;;;7.03;4.32;;;;;;;;;;5079597;28;20028;-76
2023/06/05 05:52:03;;;;;;;6.50;3.63;;;;;;;;;;5074599;28;20114;-79
2023/06/05 05:54:28;;;;;;;6.43;3.78;;;;;;;;;;5077156;28;20103;-77
2023/06/05 05:56:54;;;;;;;6.55;3.95;;;;;;;;;;5056615;28;20127;-77
2023/06/05 05:59:20;;;;;;;6.75;4.22;;;;;;;;;;5054346;28;20059;-79
2023/06/05 06:01:46;;;;;;;5.70;4.00;;;;;;;;;;5075411;28;20024;-77
2023/06/05 06:04:12;;;;;;;6.30;4.20;;;;;;;;;;5055917;28;20032;-79
2023/06/05 06:06:39;;;;;;;8.05;4.85;;;;;;;;;;5075014;28;20376;-80
2023/06/05 06:09:07;;;;;;;6.22;4.05;;;;;;;;;;5062567;28;20551;-80
2023/06/05 06:11:33;;;;;;;7.47;3.90;;;;;;;;;;5063347;28;20058;-80
2023/06/05 06:13:59;;;;;;;7.55;3.70;;;;;;;;;;5063473;28;20111;-80
2023/06/05 06:16:25;;;;;;;6.35;4.07;;;;;;;;;;5059113;28;20518;-79
2023/06/05 06:18:50;;;;;;;8.90;4.00;;;;;;;;;;5073681;28;20328;-80
2023/06/05 06:21:16;;;;;;;7.13;4.20;;;;;;;;;;5070851;28;20130;-79
2023/06/05 06:23:41;;;;;;;6.97;3.65;;;;;;;;;;5073238;28;20027;-79
2023/06/05 06:26:06;;;;;;;8.18;3.85;;;;;;;;;;5075568;28;20507;-80
2023/06/05 06:28:32;;;;;;;5.15;3.13;;;;;;;;;;5059840;28;20066;-80
2023/06/05 06:30:58;;;;;;;7.55;3.75;;;;;;;;;;5064161;28;20419;-79
2023/06/05 06:33:24;;;;;;;8.70;4.03;;;;;;;;;;5076575;28;20467;-80
2023/06/05 06:35:49;;;;;;;5.88;3.70;;;;;;;;;;5058385;28;20031;-80
2023/06/05 06:38:16;;;;;;;6.97;3.88;;;;;;;;;;5074428;28;20036;-77
2023/06/05 06:40:42;;;;;;;5.78;3.78;;;;;;;;;;5072343;28;21149;-79
2023/06/05 06:43:07;;;;;;;5.35;3.40;;;;;;;;;;5053725;28;20025;-80
2023/06/05 06:45:32;;;;;;;6.80;3.72;;;;;;;;;;5075046;28;20020;-79
2023/06/05 06:47:58;;;;;;;5.43;3.13;;;;;;;;;;5058134;28;20028;-79
2023/06/05 06:50:23;;;;;;;5.50;3.58;;;;;;;;;;5068164;28;20024;-79
2023/06/05 06:52:48;;;;;;;6.82;3.50;;;;;;;;;;5060238;28;20043;-80
2023/06/05 06:55:14;;;;;;;7.72;3.55;;;;;;;;;;5080856;28;20059;-79
2023/06/05 06:57:39;;;;;;;4.60;2.83;;;;;;;;;;5072200;28;20389;-78
2023/06/05 07:00:09;;;;;;;5.30;3.22;;;;;;;;;;5059237;28;20028;-80
2023/06/05 07:02:35;;;;;;;5.72;3.30;;;;;;;;;;5060646;28;20438;-78
2023/06/05 07:05:00;;;;;;;5.72;3.17;;;;;;;;;;5062906;28;20118;-79
2023/06/05 07:07:27;;;;;;;4.32;3.00;;;;;;;;;;5060463;28;20502;-80
2023/06/05 07:09:53;;;;;;;7.68;3.33;;;;;;;;;;5076034;28;20017;-80
2023/06/05 07:12:22;;;;;;;5.35;2.95;;;;;;;;;;5081886;28;20055;-79
2023/06/05 07:14:48;;;;;;;6.63;3.08;;;;;;;;;;5060406;28;20020;-80
2023/06/05 07:17:13;;;;;;;5.55;3.25;;;;;;;;;;5061509;28;20028;-79
2023/06/05 07:19:39;;;;;;;5.13;3.10;;;;;;;;;;5063205;28;20103;-79
2023/06/05 07:22:05;;;;;;;5.85;3.20;;;;;;;;;;5057869;28;20108;-79
2023/06/05 07:24:31;;;;;;;6.03;3.10;;;;;;;;;;5074375;28;20017;-78
2023/06/05 07:27:00;;;;;;;5.05;3.20;;;;;;;;;;5079755;28;20039;-79
2023/06/05 07:29:26;;;;;;;5.70;3.35;;;;;;;;;;5084284;28;20480;-77
2023/06/05 07:31:55;;;;;;;6.57;3.58;;;;;;;;;;5060375;28;20036;-79
2023/06/05 07:34:22;;;;;;;6.38;3.10;;;;;;;;;;5085262;28;20046;-76
2023/06/05 07:36:50;;;;;;;6.57;3.33;;;;;;;;;;5068531;28;20025;-79
2023/06/05 07:39:16;;;;;;;6.70;3.50;;;;;;;;;;5075615;28;20095;-79
2023/06/05 07:41:41;;;;;;;5.85;3.15;;;;;;;;;;5066463;28;20029;-80
2023/06/05 07:44:14;;;;;;;7.70;3.45;;;;;;;;;;5080028;28;20024;-79
2023/06/05 07:46:40;;;;;;;;;;;;;;;;;;5079710;28;20073;-75
2023/06/05 07:49:06;;;;;;;6.25;3.20;;;;;;;;;;5074919;28;19923;-76
2023/06/05 07:51:35;;;;;;;6.90;3.20;;;;;;;;;;5057646;28;20070;-75
2023/06/05 07:54:06;;;;;;;7.70;3.40;;;;;;;;;;5058413;28;20028;-75
2023/06/05 07:56:33;;;;;;;8.07;3.25;;;;;;;;;;5060476;28;20024;-75
2023/06/05 07:58:58;;;;;;;5.22;3.00;;;;;;;;;;5066091;28;20447;-75
2023/06/05 08:01:25;;;;;;;6.70;2.90;;;;;;;;;;5074584;28;20032;-75
2023/06/05 08:03:51;;;;;;;5.10;3.30;;;;;;;;;;5061278;28;20392;-75
2023/06/05 08:06:16;;;;;;;5.78;3.05;;;;;;;;;;5058463;28;20039;-75
2023/06/05 08:08:42;;;;;;;6.50;3.05;;;;;;;;;;5055050;28;20535;-75
2023/06/05 08:11:08;;;;;;;7.68;3.17;;;;;;;;;;5056681;28;20029;-75
2023/06/05 08:13:34;;;;;;;6.28;3.00;;;;;;;;;;5061543;28;20047;-75
2023/06/05 08:15:59;;;;;;;5.88;3.45;;;;;;;;;;5081407;28;20035;-75
2023/06/05 08:18:24;;;;;;;6.00;2.92;;;;;;;;;;5080169;28;20374;-76
2023/06/05 08:20:50;;;;;;;5.57;2.78;;;;;;;;;;5081206;28;20040;-75
2023/06/05 08:23:16;;;;;;;5.18;2.83;;;;;;;;;;5084074;28;20029;-75
2023/06/05 08:25:42;;;;;;;5.53;2.90;;;;;;;;;;5065035;28;20107;-75
2023/06/05 08:28:08;;;;;;;5.53;3.17;;;;;;;;;;5062969;28;20027;-75
2023/06/05 08:30:33;;;;;;;7.55;3.40;;;;;;;;;;5080127;28;20464;-75
2023/06/05 08:32:58;;;;;;;4.75;3.17;;;;;;;;;;5069157;28;20038;-75
2023/06/05 08:35:24;;;;;;;7.00;3.20;;;;;;;;;;5060231;28;20028;-75
2023/06/05 08:37:49;;;;;;;5.43;2.95;;;;;;;;;;5080832;28;20028;-75
2023/06/05 08:40:18;;;;;;;4.97;2.65;;;;;;;;;;5063813;28;20103;-75
2023/06/05 08:42:43;;;;;;;5.15;2.90;;;;;;;;;;5080568;28;20490;-75
2023/06/05 08:45:09;;;;;;;5.78;3.00;;;;;;;;;;5082633;28;20105;-76
2023/06/05 08:47:38;;;;;;;5.32;2.83;;;;;;;;;;5080988;28;20032;-75
2023/06/05 08:50:06;;;;;;;5.28;2.60;;;;;;;;;;5080783;28;20028;-75
2023/06/05 08:52:38;;;;;;;6.80;2.92;;;;;;;;;;5061800;28;20484;-75
2023/06/05 08:55:05;;;;;;;4.50;3.28;;;;;;;;;;5060233;28;20032;-76
2023/06/05 08:57:32;;;;;;;6.80;3.25;;;;;;;;;;5081186;28;20036;-76
2023/06/05 08:59:59;;;;;;;5.43;3.30;;;;;;;;;;5057401;28;20048;-75
2023/06/05 09:02:24;;;;;;;6.15;3.20;;;;;;;;;;5057777;28;20484;-75
2023/06/05 09:04:49;;;;;;;6.07;3.08;;;;;;;;;;5075846;28;20012;-76
2023/06/05 09:07:15;;;;;;;4.60;2.70;;;;;;;;;;5068076;28;20089;-75
2023/06/05 09:09:43;;;;;;;7.82;3.40;;;;;;;;;;5083697;28;20027;-75
2023/06/05 09:12:12;;;;;;;6.68;3.10;;;;;;;;;;5064416;28;20114;-75
2023/06/05 09:14:37;;;;;;;5.95;3.58;;;;;;;;;;5086267;28;20522;-75
2023/06/05 09:17:03;;;;;;;5.20;2.90;;;;;;;;;;5080509;28;20032;-75
2023/06/05 09:19:36;;;;;;;8.52;3.28;;;;;;;;;;5058908;28;20017;-75
2023/06/05 09:22:02;;;;;;;6.70;3.33;;;;;;;;;;5069934;28;20484;-75
2023/06/05 09:24:30;;;;;;;5.75;3.33;;;;;;;;;;5076712;28;20517;-75
2023/06/05 09:27:08;;;;;;;6.13;3.28;;;;;;;;;;5080929;28;20024;-75
2023/06/05 09:29:36;;;;;;;6.78;3.50;;;;;;;;;;5062420;28;20037;-76
2023/06/05 09:32:09;;;;;;;8.43;3.50;;;;;;;;;;5061786;28;20036;-76
2023/06/05 09:34:39;;;;;;;5.38;3.00;;;;;;;;;;5068931;28;20421;-76
2023/06/05 09:37:09;;;;;;;6.05;2.60;;;;;;;;;;5063286;28;20381;-76
2023/06/05 09:39:36;;;;;;;4.38;2.85;;;;;;;;;;5076321;28;20494;-76
2023/06/05 09:42:02;;;;;;;6.63;3.17;;;;;;;;;;5074761;28;20030;-76
2023/06/05 09:44:29;;;;;;;5.57;2.75;;;;;;;;;;5060764;28;20123;-76
2023/06/05 09:47:07;;;;;;;6.25;3.40;;;;;;;;;;5060399;28;20048;-77
2023/06/05 09:49:52;;;;;;;7.68;3.38;;;;;;;;;;5078297;28;20115;-76
2023/06/05 09:52:19;;;;;;;5.78;3.00;;;;;;;;;;5077525;28;20455;-76
2023/06/05 09:54:45;;;;;;;6.18;2.80;;;;;;;;;;5061902;28;20086;-76
2023/06/05 09:57:13;;;;;;;5.43;2.83;;;;;;;;;;5081476;28;20015;-76
2023/06/05 09:59:53;;;;;;;4.28;2.83;;;;;;;;;;5078746;28;20020;-76
2023/06/05 10:02:33;;;;;;;5.25;2.83;;;;;;;;;;5059338;28;20027;-76
2023/06/05 10:05:03;;;;;;;4.70;2.72;;;;;;;;;;5081734;28;20032;-76
2023/06/05 10:07:30;;;;;;;4.15;2.50;;;;;;;;;;5074465;28;20023;-76
2023/06/05 10:09:57;;;;;;;7.43;2.88;;;;;;;;;;5082363;28;20024;-76
2023/06/05 10:12:23;;;;;;;6.38;2.90;;;;;;;;;;5072625;28;20024;-76
2023/06/05 10:14:49;;;;;;;6.22;3.42;;;;;;;;;;5057475;28;20032;-76
2023/06/05 10:17:15;;;;;;;5.57;3.10;;;;;;;;;;5073945;28;20032;-76
2023/06/05 10:19:42;;;;;;;8.38;3.42;;;;;;;;;;5077763;28;20016;-76
2023/06/05 10:22:09;;;;;;;5.50;3.10;;;;;;;;;;5068550;28;20484;-76
2023/06/05 10:25:02;;;;;;;7.25;3.20;;;;;;;;;;5075384;28;20028;-76
2023/06/05 10:27:54;;;;;;;8.40;2.85;;;;;;;;;;5057536;28;20123;-76
2023/06/05 10:30:34;;;;;;;7.28;3.38;;;;;;;;;;5076831;28;20127;-76
2023/06/05 10:33:24;;;;;;;8.35;3.40;;;;;;;;;;5062746;28;20162;-76
2023/06/05 10:36:00;;;;;;;6.82;4.20;;;;;;;;;;5056737;28;20025;-76
2023/06/05 10:38:27;;;;;;;5.10;3.15;;;;;;;;;;5078792;28;20375;-77
2023/06/05 10:40:58;;;;;;;6.75;3.47;;;;;;;;;;5075596;28;20473;-76
2023/06/05 10:43:35;;;;;;;6.18;2.88;;;;;;;;;;5057876;28;20059;-76
2023/06/05 10:46:30;;;;;;;6.45;3.72;;;;;;;;;;5080244;28;20396;-76
2023/06/05 10:49:07;;;;;;;8.15;4.22;;;;;;;;;;5050788;28;20048;-76
2023/06/05 10:51:46;;;;;;;5.75;3.50;;;;;;;;;;5065364;28;20024;-77
2023/06/05 10:54:16;;;;;;;5.38;3.55;;;;;;;;;;5077083;28;20050;-77
2023/06/05 10:56:59;;;;;;;8.82;4.30;;;;;;;;;;5060382;28;20404;-76
2023/06/05 10:59:28;;;;;;;6.15;3.45;;;;;;;;;;5056208;28;20104;-76
2023/06/05 11:02:11;;;;;;;6.35;3.63;;;;;;;;;;5081208;28;20381;-76
2023/06/05 11:05:00;;;;;;;6.38;3.80;;;;;;;;;;5063431;28;20020;-77
2023/06/05 11:07:26;;;;;;;6.10;3.10;;;;;;;;;;5052269;28;20028;-77
2023/06/05 11:10:20;;;;;;;5.15;3.20;;;;;;;;;;5085132;28;20369;-76
2023/06/05 11:12:45;;;;;;;;;;;;;;;;;;5069300;28;20043;-76
2023/06/05 11:15:15;;;;;;;6.83;3.07;;;;;;;;;;5061885;28;19912;-76
2023/06/05 11:17:45;;;;;;;8.05;3.38;;;;;;;;;;5081944;28;20031;-77
2023/06/05 11:20:28;;;;;;;5.93;3.42;;;;;;;;;;5082835;28;20039;-76
2023/06/05 11:22:53;;;;;;;7.55;3.03;;;;;;;;;;5079667;28;20081;-76
2023/06/05 11:25:24;;;;;;;5.63;3.13;;;;;;;;;;5068165;28;20040;-77
2023/06/05 11:28:01;;;;;;;7.97;3.88;;;;;;;;;;5063631;28;20526;-76
2023/06/05 11:30:31;;;;;;;5.95;3.35;;;;;;;;;;5085039;28;20065;-76
2023/06/05 11:33:08;;;;;;;5.55;2.85;;;;;;;;;;5080185;28;20035;-76
2023/06/05 11:35:34;;;;;;;4.97;2.58;;;;;;;;;;5084362;28;20024;-77
2023/06/05 11:38:11;;;;;;;9.52;3.50;;;;;;;;;;5061527;28;20453;-77
2023/06/05 11:40:37;;;;;;;6.07;3.60;;;;;;;;;;5076770;28;20476;-76
2023/06/05 11:43:05;;;;;;;8.57;3.65;;;;;;;;;;5070732;28;20028;-76
2023/06/05 11:45:30;;;;;;;6.45;3.35;;;;;;;;;;5079288;28;20494;-77
2023/06/05 11:48:10;;;;;;;6.68;3.00;;;;;;;;;;5062032;28;20016;-77
2023/06/05 11:50:36;;;;;;;6.10;2.83;;;;;;;;;;5075480;28;20036;-76
2023/06/05 11:53:14;;;;;;;5.18;3.00;;;;;;;;;;5080660;28;20024;-77
2023/06/05 11:58:25;;;;;;;5.88;3.65;;;;;;;;;;5077634;28;20060;-77
2023/06/05 12:00:51;;;;;;;6.97;3.55;;;;;;;;;;5084462;28;20524;-77
2023/06/05 12:03:20;;;;;;;6.72;2.95;;;;;;;;;;5079893;28;20104;-77
2023/06/05 12:05:49;;;;;;;6.55;3.50;;;;;;;;;;5083061;28;20392;-77
2023/06/05 12:08:25;;;;;;;6.43;3.70;;;;;;;;;;5065301;28;20391;-77
2023/06/05 12:10:51;;;;;;;5.88;3.38;;;;;;;;;;5058524;28;20539;-77
2023/06/05 12:13:17;;;;;;;5.97;3.03;;;;;;;;;;5080459;28;20081;-77
2023/06/05 12:15:42;;;;;;;6.35;3.42;;;;;;;;;;5082232;28;20020;-76
2023/06/05 12:18:07;;;;;;;5.82;3.08;;;;;;;;;;5079405;28;20116;-75
2023/06/05 12:20:39;;;;;;;5.65;2.97;;;;;;;;;;5079872;28;20031;-76
2023/06/05 12:23:04;;;;;;;5.55;3.00;;;;;;;;;;5058939;28;20032;-77
2023/06/05 12:25:30;;;;;;;4.28;2.70;;;;;;;;;;5086266;28;20028;-77
2023/06/05 12:27:55;;;;;;;5.28;3.25;;;;;;;;;;5084980;28;20028;-77
2023/06/05 12:30:21;;;;;;;5.97;3.67;;;;;;;;;;5076860;28;20173;-77
2023/06/05 12:32:48;;;;;;;6.35;3.30;;;;;;;;;;5081135;28;20024;-77
2023/06/05 12:35:24;;;;;;;4.65;2.80;;;;;;;;;;5062389;28;20521;-77
2023/06/05 12:37:50;;;;;;;6.70;2.72;;;;;;;;;;5079183;28;20029;-77
2023/06/05 12:40:21;;;;;;;4.75;2.65;;;;;;;;;;5076355;28;20020;-77
2023/06/05 12:42:48;;;;;;;4.22;2.58;;;;;;;;;;5079623;28;20499;-77
2023/06/05 12:45:14;;;;;;;4.53;3.08;;;;;;;;;;5080158;28;20428;-77
2023/06/05 12:47:41;;;;;;;5.68;3.08;;;;;;;;;;5074216;28;20047;-77
2023/06/05 12:50:07;;;;;;;5.75;3.40;;;;;;;;;;5083917;28;20111;-77
2023/06/05 12:52:33;;;;;;;5.05;3.08;;;;;;;;;;5076149;28;20035;-77
2023/06/05 12:54:59;;;;;;;6.07;2.83;;;;;;;;;;5067076;28;20038;-76
2023/06/05 12:57:25;;;;;;;5.45;3.28;;;;;;;;;;5062247;28;20115;-77
2023/06/05 12:59:55;;;;;;;4.88;3.35;;;;;;;;;;5061358;28;20024;-77
2023/06/05 13:02:21;;;;;;;5.85;3.20;;;;;;;;;;5081589;28;20052;-77
2023/06/05 13:04:47;;;;;;;5.72;3.10;;;;;;;;;;5056871;28;20059;-77
2023/06/05 13:07:12;;;;;;;5.72;2.70;;;;;;;;;;5077970;28;20042;-77
2023/06/05 13:09:38;;;;;;;5.72;2.80;;;;;;;;;;5079372;28;20465;-77
2023/06/05 13:12:04;;;;;;;5.05;2.95;;;;;;;;;;5077844;28;20032;-77
2023/06/05 13:14:30;;;;;;;6.38;2.97;;;;;;;;;;5083922;28;20040;-77
2023/06/05 13:16:56;;;;;;;5.45;2.90;;;;;;;;;;5063235;28;20052;-77
2023/06/05 13:19:22;;;;;;;7.38;3.00;;;;;;;;;;5059305;28;20508;-77
2023/06/05 13:21:47;;;;;;;5.28;3.33;;;;;;;;;;5084509;28;20127;-77
2023/06/05 13:24:12;;;;;;;5.80;3.13;;;;;;;;;;5056518;28;20113;-77
2023/06/05 13:26:38;;;;;;;6.28;3.00;;;;;;;;;;5057453;28;20033;-77
2023/06/05 13:29:03;;;;;;;6.05;3.25;;;;;;;;;;5074189;28;20044;-77
2023/06/05 13:31:30;;;;;;;9.15;2.83;;;;;;;;;;5076789;28;20047;-77
2023/06/05 13:33:56;;;;;;;7.85;2.88;;;;;;;;;;5060830;28;20035;-76
2023/06/05 13:36:22;;;;;;;5.78;3.20;;;;;;;;;;5074905;28;20111;-77
2023/06/05 13:38:48;;;;;;;4.63;2.90;;;;;;;;;;5062303;28;20605;-77
2023/06/05 13:41:13;;;;;;;6.18;3.17;;;;;;;;;;5078839;28;20388;-77
2023/06/05 13:43:39;;;;;;;4.47;2.60;;;;;;;;;;5078616;28;20395;-78
2023/06/05 13:46:04;;;;;;;5.75;2.92;;;;;;;;;;5080292;28;20114;-77
2023/06/05 13:48:30;;;;;;;5.93;3.30;;;;;;;;;;5076911;28;20051;-77
2023/06/05 13:50:57;;;;;;;7.32;2.63;;;;;;;;;;5076198;28;20054;-76
2023/06/05 13:53:23;;;;;;;7.35;2.50;;;;;;;;;;5081820;28;20016;-77
2023/06/05 13:55:48;;;;;;;5.38;3.00;;;;;;;;;;5077289;28;20514;-77
2023/06/05 13:58:13;;;;;;;7.05;2.85;;;;;;;;;;5060974;28;20067;-77
2023/06/05 14:00:39;;;;;;;8.70;3.20;;;;;;;;;;5075456;28;20012;-77
2023/06/05 14:03:04;;;;;;;4.40;2.85;;;;;;;;;;5061683;28;20039;-77
2023/06/05 14:05:30;;;;;;;6.35;2.38;;;;;;;;;;5061897;28;20081;-77
2023/06/05 14:07:56;;;;;;;4.68;2.58;;;;;;;;;;5061326;28;20028;-77
2023/06/05 14:10:23;;;;;;;4.18;2.70;;;;;;;;;;5074476;28;20035;-77
2023/06/05 14:12:50;;;;;;;5.05;2.53;;;;;;;;;;5076363;28;20036;-77
2023/06/05 14:15:17;;;;;;;4.68;3.00;;;;;;;;;;5077766;28;20024;-77
2023/06/05 14:17:44;;;;;;;4.32;2.65;;;;;;;;;;5057778;28;20032;-77
2023/06/05 14:20:10;;;;;;;5.03;2.15;;;;;;;;;;5069846;28;20381;-77
2023/06/05 14:22:36;;;;;;;6.70;2.40;;;;;;;;;;5056245;28;20484;-77
2023/06/05 14:25:02;;;;;;;4.72;2.85;;;;;;;;;;5076504;28;20069;-77
2023/06/05 14:27:27;;;;;;;4.32;2.60;;;;;;;;;;5071372;28;20024;-77
2023/06/05 14:29:52;;;;;;;4.57;2.47;;;;;;;;;;5060708;28;20035;-76
2023/06/05 14:32:18;;;;;;;5.53;2.35;;;;;;;;;;5057250;28;20423;-77
2023/06/05 14:34:43;;;;;;;5.97;2.50;;;;;;;;;;5080279;28;20024;-78
2023/06/05 14:37:08;;;;;;;5.15;2.33;;;;;;;;;;5056737;28;20540;-77
2023/06/05 14:39:34;;;;;;;5.95;2.60;;;;;;;;;;5061339;28;20032;-77
2023/06/05 14:42:00;;;;;;;4.38;2.60;;;;;;;;;;5078350;28;20020;-77
2023/06/05 14:44:26;;;;;;;4.03;2.35;;;;;;;;;;5069825;28;20024;-77
2023/06/05 14:46:55;;;;;;;6.38;2.40;;;;;;;;;;5055969;28;20039;-77
2023/06/05 14:49:21;;;;;;;4.55;2.47;;;;;;;;;;5055274;28;20051;-77